Aviation Digital Data Service (ADDS)

Output produced by METARs form (1717 UTC 23 October 2017)
found at http://www.aviationweather.gov/adds/metars/
 
METAR text: KUCP 231656Z AUTO 14010KT 10SM -RA SCT039 SCT070 OVC100 19/15 A2993 RMK AO2 RAB41 SLP146 P0000 T01940150
Conditions at: KUCP (NEW CASTLE MUNI , PA, US) observed 1656 UTC 23 October 2017
Temperature: 19.4°C (67°F)
Dewpoint: 15.0°C (59°F) [RH = 76%]
Pressure (altimeter): 29.93 inches Hg (1013.6 mb)
[Sea-level pressure: 1014.6 mb]
Winds: from the SE (140 degrees) at 12 MPH (10 knots; 5.2 m/s)
Visibility: 10 or more miles (16+ km)
Ceiling: 10000 feet AGL
Clouds: scattered clouds at 3900 feet AGL
scattered clouds at 7000 feet AGL
overcast cloud deck at 10000 feet AGL
Weather: -RA  (light rain)

METAR text: KUCP 231556Z AUTO 13007KT 100V170 10SM SCT043 BKN085 19/14 A2998 RMK AO2 SLP163 T01890144
Conditions at: KUCP (NEW CASTLE MUNI , PA, US) observed 1556 UTC 23 October 2017
Temperature: 18.9°C (66°F)
Dewpoint: 14.4°C (58°F) [RH = 75%]
Pressure (altimeter): 29.98 inches Hg (1015.3 mb)
[Sea-level pressure: 1016.3 mb]
Winds: from the SE (130 degrees) at 8 MPH (7 knots; 3.6 m/s)
Visibility: 10 or more miles (16+ km)
Ceiling: 8500 feet AGL
Clouds: scattered clouds at 4300 feet AGL
broken clouds at 8500 feet AGL
Weather: automated observation with no human augmentation;
there may or may not be significant weather present at this time

METAR text: KUCP 231456Z AUTO 13008KT 10SM OVC055 18/14 A3001 RMK AO2 SLP174 T01780144 58016
Conditions at: KUCP (NEW CASTLE MUNI , PA, US) observed 1456 UTC 23 October 2017
Temperature: 17.8°C (64°F)
Dewpoint: 14.4°C (58°F) [RH = 80%]
Pressure (altimeter): 30.01 inches Hg (1016.3 mb)
[Sea-level pressure: 1017.4 mb]
Winds: from the SE (130 degrees) at 9 MPH (8 knots; 4.2 m/s)
Visibility: 10 or more miles (16+ km)
Ceiling: 5500 feet AGL
Clouds: overcast cloud deck at 5500 feet AGL
Weather: automated observation with no human augmentation;
there may or may not be significant weather present at this time

METAR text: KUCP 231356Z AUTO 16008KT 10SM OVC055 17/13 A3003 RMK AO2 SLP181 T01720128
Conditions at: KUCP (NEW CASTLE MUNI , PA, US) observed 1356 UTC 23 October 2017
Temperature: 17.2°C (63°F)
Dewpoint: 12.8°C (55°F) [RH = 75%]
Pressure (altimeter): 30.03 inches Hg (1017.0 mb)
[Sea-level pressure: 1018.1 mb]
Winds: from the SSE (160 degrees) at 9 MPH (8 knots; 4.2 m/s)
Visibility: 10 or more miles (16+ km)
Ceiling: 5500 feet AGL
Clouds: overcast cloud deck at 5500 feet AGL
Weather: automated observation with no human augmentation;
there may or may not be significant weather present at this time

METAR text: KUCP 231256Z AUTO 13004KT 10SM OVC055 17/12 A3005 RMK AO2 SLP187 T01670122
Conditions at: KUCP (NEW CASTLE MUNI , PA, US) observed 1256 UTC 23 October 2017
Temperature: 16.7°C (62°F)
Dewpoint: 12.2°C (54°F) [RH = 75%]
Pressure (altimeter): 30.05 inches Hg (1017.7 mb)
[Sea-level pressure: 1018.7 mb]
Winds: from the SE (130 degrees) at 5 MPH (4 knots; 2.1 m/s)
Visibility: 10 or more miles (16+ km)
Ceiling: 5500 feet AGL
Clouds: overcast cloud deck at 5500 feet AGL
Weather: automated observation with no human augmentation;
there may or may not be significant weather present at this time

METAR text: KUCP 231156Z AUTO VRB03KT 10SM BKN060 16/12 A3006 RMK AO2 SLP191 T01560117 10167 20150 56016
Conditions at: KUCP (NEW CASTLE MUNI , PA, US) observed 1156 UTC 23 October 2017
Temperature: 15.6°C (60°F)
Dewpoint: 11.7°C (53°F) [RH = 78%]
Pressure (altimeter): 30.06 inches Hg (1018.0 mb)
[Sea-level pressure: 1019.1 mb]
Winds: variable direction winds at 3 MPH (3 knots; 1.6 m/s)
Visibility: 10 or more miles (16+ km)
Ceiling: 6000 feet AGL
Clouds: broken clouds at 6000 feet AGL
Weather: automated observation with no human augmentation;
there may or may not be significant weather present at this time

METAR text: KUCP 231056Z AUTO VRB03KT 10SM CLR 15/11 A3007 RMK AO2 SLP195 T01500111
Conditions at: KUCP (NEW CASTLE MUNI , PA, US) observed 1056 UTC 23 October 2017
Temperature: 15.0°C (59°F)
Dewpoint: 11.1°C (52°F) [RH = 77%]
Pressure (altimeter): 30.07 inches Hg (1018.4 mb)
[Sea-level pressure: 1019.5 mb]
Winds: variable direction winds at 3 MPH (3 knots; 1.6 m/s)
Visibility: 10 or more miles (16+ km)
Ceiling: at least 12,000 feet AGL
Clouds: sky clear below 12,000 feet AGL
Weather: automated observation with no human augmentation;
there may or may not be significant weather present at this time

METAR text: KUCP 230956Z AUTO VRB04KT 10SM CLR 16/11 A3008 RMK AO2 SLP198 T01560111
Conditions at: KUCP (NEW CASTLE MUNI , PA, US) observed 0956 UTC 23 October 2017
Temperature: 15.6°C (60°F)
Dewpoint: 11.1°C (52°F) [RH = 75%]
Pressure (altimeter): 30.08 inches Hg (1018.7 mb)
[Sea-level pressure: 1019.8 mb]
Winds: variable direction winds at 5 MPH (4 knots; 2.1 m/s)
Visibility: 10 or more miles (16+ km)
Ceiling: at least 12,000 feet AGL
Clouds: sky clear below 12,000 feet AGL
Weather: automated observation with no human augmentation;
there may or may not be significant weather present at this time

METAR text: KUCP 230856Z AUTO 15004KT 10SM CLR 16/11 A3011 RMK AO2 SLP205 T01560111 57011
Conditions at: KUCP (NEW CASTLE MUNI , PA, US) observed 0856 UTC 23 October 2017
Temperature: 15.6°C (60°F)
Dewpoint: 11.1°C (52°F) [RH = 75%]
Pressure (altimeter): 30.11 inches Hg (1019.7 mb)
[Sea-level pressure: 1020.5 mb]
Winds: from the SSE (150 degrees) at 5 MPH (4 knots; 2.1 m/s)
Visibility: 10 or more miles (16+ km)
Ceiling: at least 12,000 feet AGL
Clouds: sky clear below 12,000 feet AGL
Weather: automated observation with no human augmentation;
there may or may not be significant weather present at this time

METAR text: KUCP 230756Z AUTO 14005KT 10SM CLR 16/11 A3012 RMK AO2 SLP209 T01560111
Conditions at: KUCP (NEW CASTLE MUNI , PA, US) observed 0756 UTC 23 October 2017
Temperature: 15.6°C (60°F)
Dewpoint: 11.1°C (52°F) [RH = 75%]
Pressure (altimeter): 30.12 inches Hg (1020.1 mb)
[Sea-level pressure: 1020.9 mb]
Winds: from the SE (140 degrees) at 6 MPH (5 knots; 2.6 m/s)
Visibility: 10 or more miles (16+ km)
Ceiling: at least 12,000 feet AGL
Clouds: sky clear below 12,000 feet AGL
Weather: automated observation with no human augmentation;
there may or may not be significant weather present at this time

METAR text: KUCP 230656Z AUTO 13005KT 10SM CLR 17/11 A3013 RMK AO2 SLP211 T01670111
Conditions at: KUCP (NEW CASTLE MUNI , PA, US) observed 0656 UTC 23 October 2017
Temperature: 16.7°C (62°F)
Dewpoint: 11.1°C (52°F) [RH = 70%]
Pressure (altimeter): 30.13 inches Hg (1020.4 mb)
[Sea-level pressure: 1021.1 mb]
Winds: from the SE (130 degrees) at 6 MPH (5 knots; 2.6 m/s)
Visibility: 10 or more miles (16+ km)
Ceiling: at least 12,000 feet AGL
Clouds: sky clear below 12,000 feet AGL
Weather: automated observation with no human augmentation;
there may or may not be significant weather present at this time

METAR text: KUCP 230556Z AUTO VRB03KT 10SM CLR 17/12 A3014 RMK AO2 SLP216 T01670117 10183 20150 56008
Conditions at: KUCP (NEW CASTLE MUNI , PA, US) observed 0556 UTC 23 October 2017
Temperature: 16.7°C (62°F)
Dewpoint: 11.7°C (53°F) [RH = 72%]
Pressure (altimeter): 30.14 inches Hg (1020.7 mb)
[Sea-level pressure: 1021.6 mb]
Winds: variable direction winds at 3 MPH (3 knots; 1.6 m/s)
Visibility: 10 or more miles (16+ km)
Ceiling: at least 12,000 feet AGL
Clouds: sky clear below 12,000 feet AGL
Weather: automated observation with no human augmentation;
there may or may not be significant weather present at this time

METAR text: KUCP 230356Z AUTO 15005KT 10SM CLR 18/12 A3016 RMK AO2 SLP221 T01830117
Conditions at: KUCP (NEW CASTLE MUNI , PA, US) observed 0356 UTC 23 October 2017
Temperature: 18.3°C (65°F)
Dewpoint: 11.7°C (53°F) [RH = 65%]
Pressure (altimeter): 30.16 inches Hg (1021.4 mb)
[Sea-level pressure: 1022.1 mb]
Winds: from the SSE (150 degrees) at 6 MPH (5 knots; 2.6 m/s)
Visibility: 10 or more miles (16+ km)
Ceiling: at least 12,000 feet AGL
Clouds: sky clear below 12,000 feet AGL
Weather: automated observation with no human augmentation;
there may or may not be significant weather present at this time

METAR text: KUCP 230256Z AUTO 13003KT 10SM CLR 18/11 A3017 RMK AO2 SLP227 T01780111 58005
Conditions at: KUCP (NEW CASTLE MUNI , PA, US) observed 0256 UTC 23 October 2017
Temperature: 17.8°C (64°F)
Dewpoint: 11.1°C (52°F) [RH = 65%]
Pressure (altimeter): 30.17 inches Hg (1021.8 mb)
[Sea-level pressure: 1022.7 mb]
Winds: from the SE (130 degrees) at 3 MPH (3 knots; 1.6 m/s)
Visibility: 10 or more miles (16+ km)
Ceiling: at least 12,000 feet AGL
Clouds: sky clear below 12,000 feet AGL
Weather: automated observation with no human augmentation;
there may or may not be significant weather present at this time

METAR text: KUCP 230156Z AUTO 11003KT 10SM CLR 16/12 A3018 RMK AO2 SLP233 T01560117
Conditions at: KUCP (NEW CASTLE MUNI , PA, US) observed 0156 UTC 23 October 2017
Temperature: 15.6°C (60°F)
Dewpoint: 11.7°C (53°F) [RH = 78%]
Pressure (altimeter): 30.18 inches Hg (1022.1 mb)
[Sea-level pressure: 1023.3 mb]
Winds: from the ESE (110 degrees) at 3 MPH (3 knots; 1.6 m/s)
Visibility: 10 or more miles (16+ km)
Ceiling: at least 12,000 feet AGL
Clouds: sky clear below 12,000 feet AGL
Weather: automated observation with no human augmentation;
there may or may not be significant weather present at this time

METAR text: KUCP 230056Z AUTO 00000KT 10SM CLR 16/11 A3018 RMK AO2 SLP234 T01610111
Conditions at: KUCP (NEW CASTLE MUNI , PA, US) observed 0056 UTC 23 October 2017
Temperature: 16.1°C (61°F)
Dewpoint: 11.1°C (52°F) [RH = 72%]
Pressure (altimeter): 30.18 inches Hg (1022.1 mb)
[Sea-level pressure: 1023.4 mb]
Winds: calm
Visibility: 10 or more miles (16+ km)
Ceiling: at least 12,000 feet AGL
Clouds: sky clear below 12,000 feet AGL
Weather: automated observation with no human augmentation;
there may or may not be significant weather present at this time

METAR text: KUCP 222356Z AUTO 00000KT 10SM CLR 17/11 A3018 RMK AO2 SLP237 T01720111 10256 20167 50001
Conditions at: KUCP (NEW CASTLE MUNI , PA, US) observed 2356 UTC 22 October 2017
Temperature: 17.2°C (63°F)
Dewpoint: 11.1°C (52°F) [RH = 67%]
Pressure (altimeter): 30.18 inches Hg (1022.1 mb)
[Sea-level pressure: 1023.7 mb]
Winds: calm
Visibility: 10 or more miles (16+ km)
Ceiling: at least 12,000 feet AGL
Clouds: sky clear below 12,000 feet AGL
Weather: automated observation with no human augmentation;
there may or may not be significant weather present at this time

METAR text: KUCP 222256Z AUTO 14003KT 10SM CLR 20/11 A3019 RMK AO2 SLP238 T02000106
Conditions at: KUCP (NEW CASTLE MUNI , PA, US) observed 2256 UTC 22 October 2017
Temperature: 20.0°C (68°F)
Dewpoint: 10.6°C (51°F) [RH = 55%]
Pressure (altimeter): 30.19 inches Hg (1022.4 mb)
[Sea-level pressure: 1023.8 mb]
Winds: from the SE (140 degrees) at 3 MPH (3 knots; 1.6 m/s)
Visibility: 10 or more miles (16+ km)
Ceiling: at least 12,000 feet AGL
Clouds: sky clear below 12,000 feet AGL
Weather: automated observation with no human augmentation;
there may or may not be significant weather present at this time

METAR text: KUCP 222156Z AUTO 00000KT 10SM CLR 22/11 A3018 RMK AO2 SLP234 T02170106
Conditions at: KUCP (NEW CASTLE MUNI , PA, US) observed 2156 UTC 22 October 2017
Temperature: 21.7°C (71°F)
Dewpoint: 10.6°C (51°F) [RH = 49%]
Pressure (altimeter): 30.18 inches Hg (1022.1 mb)
[Sea-level pressure: 1023.4 mb]
Winds: calm
Visibility: 10 or more miles (16+ km)
Ceiling: at least 12,000 feet AGL
Clouds: sky clear below 12,000 feet AGL
Weather: automated observation with no human augmentation;
there may or may not be significant weather present at this time

METAR text: KUCP 222056Z AUTO 14006KT 10SM CLR 24/11 A3018 RMK AO2 SLP232 T02440106 56020
Conditions at: KUCP (NEW CASTLE MUNI , PA, US) observed 2056 UTC 22 October 2017
Temperature: 24.4°C (76°F)
Dewpoint: 10.6°C (51°F) [RH = 42%]
Pressure (altimeter): 30.18 inches Hg (1022.1 mb)
[Sea-level pressure: 1023.2 mb]
Winds: from the SE (140 degrees) at 7 MPH (6 knots; 3.1 m/s)
Visibility: 10 or more miles (16+ km)
Ceiling: at least 12,000 feet AGL
Clouds: sky clear below 12,000 feet AGL
Weather: automated observation with no human augmentation;
there may or may not be significant weather present at this time

METAR text: KUCP 221956Z AUTO 14007KT 10SM CLR 26/11 A3020 RMK AO2 SLP238 T02560106
Conditions at: KUCP (NEW CASTLE MUNI , PA, US) observed 1956 UTC 22 October 2017
Temperature: 25.6°C (78°F)
Dewpoint: 10.6°C (51°F) [RH = 39%]
Pressure (altimeter): 30.20 inches Hg (1022.8 mb)
[Sea-level pressure: 1023.8 mb]
Winds: from the SE (140 degrees) at 8 MPH (7 knots; 3.6 m/s)
Visibility: 10 or more miles (16+ km)
Ceiling: at least 12,000 feet AGL
Clouds: sky clear below 12,000 feet AGL
Weather: automated observation with no human augmentation;
there may or may not be significant weather present at this time

METAR text: KUCP 221856Z AUTO VRB03KT 10SM CLR 24/12 A3022 RMK AO2 SLP245 T02390117
Conditions at: KUCP (NEW CASTLE MUNI , PA, US) observed 1856 UTC 22 October 2017
Temperature: 23.9°C (75°F)
Dewpoint: 11.7°C (53°F) [RH = 46%]
Pressure (altimeter): 30.22 inches Hg (1023.5 mb)
[Sea-level pressure: 1024.5 mb]
Winds: variable direction winds at 3 MPH (3 knots; 1.6 m/s)
Visibility: 10 or more miles (16+ km)
Ceiling: at least 12,000 feet AGL
Clouds: sky clear below 12,000 feet AGL
Weather: automated observation with no human augmentation;
there may or may not be significant weather present at this time

METAR text: KUCP 221756Z AUTO VRB05KT 10SM CLR 24/11 A3024 RMK AO2 SLP252 T02390111 10239 20061 58017
Conditions at: KUCP (NEW CASTLE MUNI , PA, US) observed 1756 UTC 22 October 2017
Temperature: 23.9°C (75°F)
Dewpoint: 11.1°C (52°F) [RH = 45%]
Pressure (altimeter): 30.24 inches Hg (1024.1 mb)
[Sea-level pressure: 1025.2 mb]
Winds: variable direction winds at 6 MPH (5 knots; 2.6 m/s)
Visibility: 10 or more miles (16+ km)
Ceiling: at least 12,000 feet AGL
Clouds: sky clear below 12,000 feet AGL
Weather: automated observation with no human augmentation;
there may or may not be significant weather present at this time